createdAt,value
2022-10-12T00:00:15.636Z,91.70
2022-10-12T00:01:15.650Z,91.70
2022-10-12T00:02:15.655Z,91.70
2022-10-12T00:03:15.597Z,91.60
2022-10-12T00:04:15.600Z,91.60
2022-10-12T00:05:15.576Z,91.49
2022-10-12T00:06:15.583Z,91.60
2022-10-12T00:07:15.559Z,91.60
2022-10-12T00:08:15.541Z,91.64
2022-10-12T00:09:15.532Z,91.74
2022-10-12T00:10:15.522Z,91.74
2022-10-12T00:11:15.714Z,91.85
2022-10-12T00:12:15.499Z,91.85
2022-10-12T00:13:15.487Z,91.85
2022-10-12T00:14:15.472Z,91.95
2022-10-12T00:15:15.466Z,91.95
2022-10-12T00:16:15.454Z,91.85
2022-10-12T00:17:15.464Z,91.95
2022-10-12T00:18:15.438Z,91.85
2022-10-12T00:19:15.433Z,91.95
2022-10-12T00:20:15.405Z,91.95
2022-10-12T00:21:15.404Z,92.05
2022-10-12T00:22:15.415Z,92.05
2022-10-12T00:23:15.375Z,92.10
2022-10-12T00:24:15.369Z,92.05
2022-10-12T00:25:15.375Z,92.20
2022-10-12T00:26:15.350Z,92.20
2022-10-12T00:27:15.347Z,92.20
2022-10-12T00:28:15.362Z,92.16
2022-10-12T00:29:15.318Z,92.16
2022-10-12T00:30:15.307Z,92.16
2022-10-12T00:31:15.297Z,92.20
2022-10-12T00:32:15.293Z,92.20
2022-10-12T00:33:15.277Z,92.20
2022-10-12T00:34:15.260Z,92.05
2022-10-12T00:35:15.251Z,92.10
2022-10-12T00:36:15.243Z,92.05
2022-10-12T00:37:15.250Z,92.05
2022-10-12T00:38:15.222Z,92.05
2022-10-12T00:39:15.212Z,92.05
2022-10-12T00:40:15.197Z,92.05
2022-10-12T00:41:15.190Z,92.05
2022-10-12T00:42:15.190Z,92.05
2022-10-12T00:43:15.167Z,92.16
2022-10-12T00:44:15.161Z,92.16
2022-10-12T00:45:15.150Z,92.20
2022-10-12T00:46:15.133Z,92.30
2022-10-12T00:47:15.135Z,92.30
2022-10-12T00:48:15.113Z,92.30
2022-10-12T00:49:15.116Z,92.40
2022-10-12T00:50:15.103Z,92.40
2022-10-12T00:51:15.097Z,92.40
2022-10-12T00:52:15.097Z,92.40
2022-10-12T00:53:15.105Z,92.50
2022-10-12T00:54:15.050Z,92.50
2022-10-12T00:55:15.039Z,92.61
2022-10-12T00:56:15.029Z,92.61
2022-10-12T00:57:15.026Z,92.61
2022-10-12T00:58:15.015Z,92.61
2022-10-12T00:59:14.995Z,92.50
2022-10-12T01:00:14.980Z,92.50
2022-10-12T01:01:15.082Z,92.50
2022-10-12T01:02:14.976Z,92.50
2022-10-12T01:03:14.966Z,92.61
2022-10-12T01:04:14.946Z,92.61
2022-10-12T01:05:14.930Z,92.50
2022-10-12T01:06:14.924Z,92.61
2022-10-12T01:07:14.913Z,92.61
2022-10-12T01:08:14.914Z,92.50
2022-10-12T01:09:14.905Z,92.50
2022-10-12T01:10:14.908Z,92.40
2022-10-12T01:11:14.876Z,92.40
2022-10-12T01:12:14.863Z,92.30
2022-10-12T01:13:14.866Z,92.30
2022-10-12T01:14:14.833Z,92.30
2022-10-12T01:15:14.830Z,92.30
2022-10-12T01:16:14.815Z,92.20
2022-10-12T01:17:14.818Z,92.20
2022-10-12T01:18:14.822Z,92.20
2022-10-12T01:19:14.788Z,92.10
2022-10-12T01:20:14.771Z,92.10
2022-10-12T01:21:14.764Z,92.10
2022-10-12T01:22:14.743Z,91.99
2022-10-12T01:23:14.743Z,91.99
2022-10-12T01:24:14.734Z,91.99
2022-10-12T01:25:14.720Z,91.89
2022-10-12T01:26:14.707Z,91.89
2022-10-12T01:27:14.698Z,91.78
2022-10-12T01:29:41.620Z,91.78
2022-10-12T01:29:46.428Z,91.78
2022-10-12T01:30:46.421Z,91.78
2022-10-12T01:31:46.404Z,91.78
2022-10-12T01:32:46.386Z,91.89
2022-10-12T01:33:46.370Z,92.03
2022-10-12T01:34:46.382Z,92.14
2022-10-12T01:35:46.365Z,92.14
2022-10-12T01:36:46.343Z,92.24
2022-10-12T01:37:46.332Z,92.34
2022-10-12T01:38:46.321Z,92.34
2022-10-12T01:39:46.318Z,92.44
2022-10-12T01:40:46.309Z,92.44
2022-10-12T01:41:46.296Z,92.55
2022-10-12T01:42:46.289Z,92.55
2022-10-12T01:43:46.278Z,92.59
2022-10-12T01:44:46.257Z,92.69
2022-10-12T01:45:46.242Z,92.69
2022-10-12T01:46:46.255Z,92.80
2022-10-12T01:47:46.225Z,92.80
2022-10-12T01:48:46.209Z,92.69
2022-10-12T01:49:46.206Z,92.80
2022-10-12T01:50:46.195Z,92.69
2022-10-12T01:51:46.196Z,92.69
2022-10-12T01:52:46.164Z,92.69
2022-10-12T01:53:46.167Z,92.69
2022-10-12T01:54:46.153Z,92.69
2022-10-12T01:55:46.140Z,92.69
2022-10-12T01:56:46.136Z,92.69
2022-10-12T01:57:46.117Z,92.69
2022-10-12T01:58:46.109Z,92.69
2022-10-12T01:59:46.104Z,92.69
2022-10-12T02:00:46.153Z,92.59
2022-10-12T02:01:46.080Z,92.59
2022-10-12T02:02:46.076Z,92.59
2022-10-12T02:03:46.053Z,92.59
2022-10-12T02:04:46.046Z,92.49
2022-10-12T02:05:46.117Z,92.59
2022-10-12T02:06:46.034Z,92.59
2022-10-12T02:07:46.037Z,92.59
2022-10-12T02:08:46.010Z,92.69
2022-10-12T02:09:45.994Z,92.69
2022-10-12T02:10:45.979Z,92.80
2022-10-12T02:11:45.986Z,92.80
2022-10-12T02:12:45.968Z,92.90
2022-10-12T02:13:45.956Z,92.90
2022-10-12T02:14:45.953Z,92.90
2022-10-12T02:15:45.929Z,93.01
2022-10-12T02:16:45.910Z,93.01
2022-10-12T02:17:45.903Z,93.01
2022-10-12T02:18:45.895Z,93.01
2022-10-12T02:19:45.911Z,92.90
2022-10-12T02:20:45.874Z,92.90
2022-10-12T02:21:45.855Z,92.90
2022-10-12T02:22:45.849Z,92.80
2022-10-12T02:23:45.894Z,92.80
2022-10-12T02:24:45.843Z,92.80
2022-10-12T02:25:45.820Z,92.80
2022-10-12T02:26:45.798Z,92.80
2022-10-12T02:27:45.805Z,92.80
2022-10-12T02:28:45.865Z,92.80
2022-10-12T02:29:45.785Z,92.80
2022-10-12T02:30:45.760Z,92.80
2022-10-12T02:31:45.755Z,92.80
2022-10-12T02:32:45.755Z,92.80
2022-10-12T02:33:45.727Z,92.90
2022-10-12T02:34:45.724Z,92.90
2022-10-12T02:35:45.711Z,92.90
2022-10-12T02:36:45.693Z,92.90
2022-10-12T02:37:45.688Z,92.90
2022-10-12T02:38:45.668Z,92.90
2022-10-12T02:39:45.675Z,92.90
2022-10-12T02:40:45.683Z,92.90
2022-10-12T02:41:45.638Z,92.90
2022-10-12T02:43:08.673Z,92.90
2022-10-12T02:43:45.626Z,92.90
2022-10-12T02:44:45.610Z,92.90
2022-10-12T02:45:45.608Z,92.90
2022-10-12T02:46:45.593Z,92.80
2022-10-12T02:47:45.570Z,92.80
2022-10-12T02:48:45.564Z,92.94
2022-10-12T02:49:45.553Z,93.05
2022-10-12T02:50:45.551Z,93.15
2022-10-12T02:51:45.536Z,93.25
2022-10-12T02:52:45.525Z,93.25
2022-10-12T02:53:45.504Z,93.35
2022-10-12T02:54:45.498Z,93.35
2022-10-12T02:55:45.502Z,93.35
2022-10-12T02:56:45.497Z,93.35
2022-10-12T02:57:45.474Z,93.46
2022-10-12T02:58:45.462Z,93.46
2022-10-12T02:59:45.441Z,93.46
2022-10-12T03:00:45.446Z,93.35
2022-10-12T03:01:45.532Z,93.35
2022-10-12T03:02:45.420Z,93.35
2022-10-12T03:03:45.401Z,93.35
2022-10-12T03:04:45.390Z,93.46
2022-10-12T03:05:45.381Z,93.46
2022-10-12T03:06:45.385Z,93.46
2022-10-12T03:07:45.371Z,93.46
2022-10-12T03:08:45.354Z,93.46
2022-10-12T03:09:45.355Z,93.46
2022-10-12T03:10:45.329Z,93.46
2022-10-12T03:11:45.326Z,93.46
2022-10-12T03:12:49.824Z,93.46
2022-10-12T03:13:45.300Z,93.35
2022-10-12T03:14:45.286Z,93.40
2022-10-12T03:15:45.264Z,93.40
2022-10-12T03:16:45.279Z,93.25
2022-10-12T03:17:45.249Z,93.30
2022-10-12T03:18:45.243Z,93.30
2022-10-12T03:19:45.229Z,93.30
2022-10-12T03:20:45.223Z,93.30
2022-10-12T03:21:45.233Z,93.30
2022-10-12T03:22:45.195Z,93.40
2022-10-12T03:23:45.180Z,93.40
2022-10-12T03:24:45.171Z,93.40
2022-10-12T03:25:45.158Z,93.50
2022-10-12T03:26:45.185Z,93.50
2022-10-12T03:27:45.140Z,93.50
2022-10-12T03:28:45.156Z,93.60
2022-10-12T03:29:45.115Z,93.60
2022-10-12T03:30:45.106Z,93.60
2022-10-12T03:31:45.100Z,93.65
2022-10-12T03:32:45.097Z,93.65
2022-10-12T03:33:45.077Z,93.65
2022-10-12T03:34:45.065Z,93.75
2022-10-12T03:35:45.051Z,93.75
2022-10-12T03:36:45.037Z,93.85
2022-10-12T03:37:45.034Z,93.85
2022-10-12T03:38:45.020Z,93.96
2022-10-12T03:39:45.004Z,93.96
2022-10-12T03:40:44.996Z,93.96
2022-10-12T03:41:45.007Z,94.06
2022-10-12T03:42:44.998Z,94.06
2022-10-12T03:43:44.968Z,94.06
2022-10-12T03:44:44.951Z,93.96
2022-10-12T03:45:44.941Z,93.96
2022-10-12T03:46:44.930Z,93.96
2022-10-12T03:47:44.929Z,93.96
2022-10-12T03:48:44.918Z,93.96
2022-10-12T03:49:44.902Z,93.96
2022-10-12T03:50:44.892Z,93.96
2022-10-12T03:51:44.868Z,93.96
2022-10-12T03:52:44.874Z,93.96
2022-10-12T03:53:45.704Z,93.85
2022-10-12T03:54:44.845Z,93.85
2022-10-12T03:55:44.832Z,93.75
2022-10-12T03:56:44.820Z,93.75
2022-10-12T03:57:44.817Z,93.65
2022-10-12T03:58:44.804Z,93.65
2022-10-12T03:59:44.789Z,93.75
2022-10-12T04:00:44.786Z,93.75
2022-10-12T04:01:44.847Z,93.85
2022-10-12T04:02:44.767Z,93.96
2022-10-12T04:03:44.744Z,94.06
2022-10-12T04:04:44.744Z,94.06
2022-10-12T04:05:44.725Z,94.17
2022-10-12T04:06:44.705Z,94.21
2022-10-12T04:07:44.721Z,94.21
2022-10-12T04:08:48.450Z,94.21
2022-10-12T04:09:44.682Z,94.31
2022-10-12T04:10:44.664Z,94.31
2022-10-12T04:11:44.649Z,94.31
2022-10-12T04:12:44.651Z,94.31
2022-10-12T04:13:44.672Z,94.42
2022-10-12T04:14:44.626Z,94.52
2022-10-12T04:15:44.613Z,94.52
2022-10-12T04:16:44.609Z,94.52
2022-10-12T04:17:44.599Z,94.62
2022-10-12T04:18:44.582Z,94.62
2022-10-12T04:19:44.583Z,94.62
2022-10-12T04:20:44.553Z,94.62
2022-10-12T04:21:44.550Z,94.62
2022-10-12T04:22:44.583Z,94.72
2022-10-12T04:23:44.529Z,94.72
2022-10-12T04:24:44.516Z,94.62
2022-10-12T04:25:44.502Z,94.62
2022-10-12T04:26:44.507Z,94.62
2022-10-12T04:27:44.489Z,94.62
2022-10-12T04:28:44.546Z,94.52
2022-10-12T04:29:44.466Z,94.52
2022-10-12T04:30:44.454Z,94.42
2022-10-12T04:31:44.434Z,94.42
2022-10-12T04:32:44.423Z,94.31
2022-10-12T04:33:44.426Z,94.31
2022-10-12T04:34:44.418Z,94.31
2022-10-12T04:35:44.403Z,94.21
2022-10-12T04:36:44.385Z,94.21
2022-10-12T04:37:44.365Z,94.10
2022-10-12T04:38:44.371Z,94.10
2022-10-12T04:39:44.349Z,94.10
2022-10-12T04:40:44.349Z,94.21
2022-10-12T04:41:44.342Z,94.21
2022-10-12T04:42:44.325Z,94.21
2022-10-12T04:43:44.308Z,94.31
2022-10-12T04:44:44.307Z,94.31
2022-10-12T04:45:44.283Z,94.31
2022-10-12T04:46:44.276Z,94.31
2022-10-12T04:47:44.258Z,94.42
2022-10-12T04:48:44.286Z,94.46
2022-10-12T04:49:44.248Z,94.56
2022-10-12T04:50:44.235Z,94.56
2022-10-12T04:51:44.216Z,94.67
2022-10-12T04:52:44.212Z,94.77
2022-10-12T04:53:44.215Z,94.77
2022-10-12T04:54:44.196Z,94.87
2022-10-12T04:55:44.177Z,94.87
2022-10-12T04:56:47.728Z,94.87
2022-10-12T04:57:44.152Z,94.87
2022-10-12T04:58:44.162Z,94.87
2022-10-12T04:59:44.140Z,94.87
2022-10-12T05:00:44.136Z,94.97
2022-10-12T05:01:44.212Z,94.97
2022-10-12T05:02:44.140Z,94.97
2022-10-12T05:03:44.102Z,94.97
2022-10-12T05:04:44.088Z,94.97
2022-10-12T05:05:44.071Z,94.97
2022-10-12T05:06:44.077Z,94.97
2022-10-12T05:07:44.050Z,94.97
2022-10-12T05:08:44.056Z,94.87
2022-10-12T05:09:44.032Z,94.87
2022-10-12T05:10:44.027Z,94.87
2022-10-12T05:11:44.002Z,94.77
2022-10-12T05:12:43.997Z,94.72
2022-10-12T05:13:44.007Z,94.77
2022-10-12T05:14:43.977Z,94.62
2022-10-12T05:15:43.983Z,94.56
2022-10-12T05:16:43.978Z,94.56
2022-10-12T05:17:43.951Z,94.56
2022-10-12T05:18:43.975Z,94.67
2022-10-12T05:19:43.934Z,94.67
2022-10-12T05:20:43.928Z,94.67
2022-10-12T05:21:44.063Z,94.67
2022-10-12T05:22:43.926Z,94.67
2022-10-12T05:23:43.927Z,94.56
2022-10-12T05:24:43.912Z,94.52
2022-10-12T05:25:43.869Z,94.52
2022-10-12T05:26:43.862Z,94.42
2022-10-12T05:27:43.865Z,94.42
2022-10-12T05:28:43.865Z,94.31
2022-10-12T05:29:44.192Z,94.31
2022-10-12T05:30:43.826Z,94.31
2022-10-12T05:31:43.909Z,94.21
2022-10-12T05:32:43.826Z,94.21
2022-10-12T05:33:43.797Z,94.10
2022-10-12T05:34:43.914Z,94.04
2022-10-12T05:35:47.465Z,94.04
2022-10-12T05:36:43.834Z,94.15
2022-10-12T05:37:43.868Z,94.15
2022-10-12T05:38:43.739Z,94.15
2022-10-12T05:39:43.787Z,94.15
2022-10-12T05:40:43.721Z,94.25
2022-10-12T05:41:43.696Z,94.35
2022-10-12T05:42:43.689Z,94.46
2022-10-12T05:43:43.694Z,94.56
2022-10-12T05:44:43.801Z,94.67
2022-10-12T05:45:43.671Z,94.77
2022-10-12T05:46:43.682Z,94.87
2022-10-12T05:47:43.681Z,94.87
2022-10-12T05:48:43.692Z,94.97
2022-10-12T05:49:43.696Z,94.97
2022-10-12T05:50:43.631Z,95.07
2022-10-12T05:51:43.578Z,95.07
2022-10-12T05:52:43.805Z,95.07
2022-10-12T05:53:43.587Z,95.07
2022-10-12T05:54:43.613Z,94.97
2022-10-12T05:55:43.627Z,94.97
2022-10-12T05:56:43.528Z,94.87
2022-10-12T05:57:44.851Z,94.97
2022-10-12T05:58:43.511Z,94.97
2022-10-12T05:59:43.506Z,94.97
2022-10-12T06:00:43.490Z,94.97
2022-10-12T06:01:43.519Z,94.97
2022-10-12T06:02:43.571Z,94.87
2022-10-12T06:03:43.484Z,94.87
2022-10-12T06:04:43.567Z,94.77
2022-10-12T06:05:43.430Z,94.67
2022-10-12T06:06:43.431Z,94.67
2022-10-12T06:07:43.415Z,94.67
2022-10-12T06:08:43.397Z,94.62
2022-10-12T06:09:43.422Z,94.62
2022-10-12T06:11:43.371Z,94.62
2022-10-12T06:12:43.365Z,94.62
2022-10-12T06:13:43.361Z,94.62
2022-10-12T06:14:43.368Z,94.52
2022-10-12T06:15:43.370Z,94.52
2022-10-12T06:16:43.309Z,94.52
2022-10-12T06:17:43.299Z,94.52
2022-10-12T06:18:43.314Z,94.52
2022-10-12T06:19:43.283Z,94.42
2022-10-12T06:20:43.283Z,94.42
2022-10-12T06:21:43.261Z,94.42
2022-10-12T06:22:43.262Z,94.31
2022-10-12T06:23:43.233Z,94.31
2022-10-12T06:24:43.239Z,94.27
2022-10-12T06:25:43.232Z,94.27
2022-10-12T06:26:43.212Z,94.27
2022-10-12T06:27:43.182Z,94.27
2022-10-12T06:28:43.242Z,94.27
2022-10-12T06:29:43.166Z,94.17
2022-10-12T06:30:43.174Z,94.17
2022-10-12T06:31:46.506Z,94.17
2022-10-12T06:32:43.151Z,94.06
2022-10-12T06:33:43.120Z,94.02
2022-10-12T06:34:43.160Z,93.91
2022-10-12T06:35:43.113Z,93.91
2022-10-12T06:36:43.099Z,93.91
2022-10-12T06:37:50.089Z,93.91
2022-10-12T06:38:43.081Z,93.91
2022-10-12T06:39:43.053Z,93.91
2022-10-12T06:40:43.062Z,94.02
2022-10-12T06:41:43.067Z,94.02
2022-10-12T06:42:43.018Z,94.02
2022-10-12T06:43:43.026Z,94.02
2022-10-12T06:44:43.013Z,94.02
2022-10-12T06:45:42.999Z,93.98
2022-10-12T06:46:42.975Z,93.98
2022-10-12T06:47:42.991Z,93.87
2022-10-12T06:48:42.954Z,93.87
2022-10-12T06:49:42.963Z,93.87
2022-10-12T06:50:42.956Z,93.77
2022-10-12T06:51:42.925Z,93.66
2022-10-12T06:52:42.946Z,93.52
2022-10-12T06:53:42.929Z,93.52
2022-10-12T06:54:42.905Z,93.41
2022-10-12T06:55:42.906Z,93.41
2022-10-12T06:56:42.888Z,93.31
2022-10-12T06:57:42.860Z,93.21
2022-10-12T06:58:42.843Z,93.21
2022-10-12T06:59:42.883Z,93.11
2022-10-12T07:00:42.854Z,93.11
2022-10-12T07:01:42.868Z,93.01
2022-10-12T07:02:42.802Z,92.96
2022-10-12T07:03:42.796Z,92.96
2022-10-12T07:04:42.776Z,92.86
2022-10-12T07:05:42.779Z,92.86
2022-10-12T07:06:42.808Z,92.86
2022-10-12T07:07:42.788Z,92.86
2022-10-12T07:08:42.741Z,92.86
2022-10-12T07:09:42.730Z,92.82
2022-10-12T07:10:42.741Z,92.61
2022-10-12T07:11:42.742Z,92.40
2022-10-12T07:12:42.705Z,92.30
2022-10-12T07:13:42.696Z,92.20
2022-10-12T07:14:42.678Z,92.05
2022-10-12T07:15:42.671Z,91.95
2022-10-12T07:16:42.681Z,91.85
2022-10-12T07:17:42.650Z,91.74
2022-10-12T07:18:42.644Z,91.74
2022-10-12T07:19:42.634Z,91.74
2022-10-12T07:20:42.617Z,91.70
2022-10-12T07:21:42.623Z,91.70
2022-10-12T07:22:42.603Z,91.70
2022-10-12T07:23:46.035Z,91.70
2022-10-12T07:24:42.631Z,91.60
2022-10-12T07:25:42.636Z,91.60
2022-10-12T07:26:42.562Z,91.45
2022-10-12T07:27:42.538Z,91.04
2022-10-12T07:28:42.601Z,90.83
2022-10-12T07:29:42.526Z,90.73
2022-10-12T07:30:42.528Z,90.53
2022-10-12T07:31:42.511Z,90.42
2022-10-12T07:32:42.489Z,90.32
2022-10-12T07:33:42.494Z,90.28
2022-10-12T07:34:42.468Z,90.18
2022-10-12T07:36:03.199Z,89.97
2022-10-12T07:36:58.711Z,89.87
2022-10-12T07:37:42.624Z,89.76
2022-10-12T07:38:42.415Z,89.62
2022-10-12T07:39:42.432Z,89.52
2022-10-12T07:40:42.401Z,89.31
2022-10-12T07:41:42.398Z,89.11
2022-10-12T07:43:11.568Z,89.11
2022-10-12T07:43:42.386Z,89.01
2022-10-12T07:44:42.360Z,88.86
2022-10-12T07:45:43.139Z,88.76
2022-10-12T07:46:42.345Z,88.45
2022-10-12T07:47:42.334Z,88.45
2022-10-12T07:48:47.199Z,88.35
2022-10-12T07:49:42.328Z,87.90
2022-10-12T07:50:42.291Z,87.59
2022-10-12T07:51:42.282Z,87.59
2022-10-12T07:52:42.319Z,87.59
2022-10-12T07:53:42.272Z,87.59
2022-10-12T07:54:42.260Z,87.45
2022-10-12T07:55:42.267Z,87.45
2022-10-12T07:56:42.269Z,87.24
2022-10-12T07:57:42.236Z,87.04
2022-10-12T07:58:42.202Z,87.04
2022-10-12T07:59:42.199Z,86.99
2022-10-12T08:00:42.178Z,86.69
2022-10-12T08:01:42.243Z,86.69
2022-10-12T08:02:42.170Z,86.69
2022-10-12T08:03:42.149Z,86.69
2022-10-12T08:04:42.135Z,86.69
2022-10-12T08:05:42.137Z,86.75
2022-10-12T08:06:42.112Z,86.55
2022-10-12T08:07:42.245Z,86.14
2022-10-12T08:08:42.091Z,85.83
2022-10-12T08:09:42.082Z,85.83
2022-10-12T08:10:42.081Z,85.83
2022-10-12T08:11:42.067Z,85.72
2022-10-12T08:12:42.073Z,85.42
2022-10-12T08:13:42.054Z,85.01
2022-10-12T08:14:42.026Z,84.91
2022-10-12T08:15:42.034Z,84.77
2022-10-12T08:16:42.011Z,84.77
2022-10-12T08:17:42.010Z,84.77
2022-10-12T08:18:41.991Z,84.66
2022-10-12T08:19:41.976Z,84.15
2022-10-12T08:20:41.962Z,83.84
2022-10-12T08:21:41.949Z,83.91
2022-10-12T08:22:41.950Z,83.91
2022-10-12T08:23:41.938Z,83.91
2022-10-12T08:24:41.919Z,83.91
2022-10-12T08:25:41.927Z,83.70
2022-10-12T08:26:41.897Z,83.70
2022-10-12T08:27:42.051Z,83.70
2022-10-12T08:28:41.930Z,83.46
2022-10-12T08:29:41.871Z,83.25
2022-10-12T08:30:41.853Z,83.15
2022-10-12T08:31:41.869Z,83.15
2022-10-12T08:32:41.859Z,83.15
2022-10-12T08:33:41.833Z,83.15
2022-10-12T08:34:41.808Z,83.15
2022-10-12T08:35:41.814Z,82.95
2022-10-12T08:36:41.785Z,82.84
2022-10-12T08:37:42.030Z,82.40
2022-10-12T08:38:41.795Z,82.29
2022-10-12T08:39:41.770Z,81.68
2022-10-12T08:40:41.747Z,81.27
2022-10-12T08:41:41.734Z,81.07
2022-10-12T08:42:41.745Z,81.07
2022-10-12T08:43:41.719Z,81.03
2022-10-12T08:44:41.705Z,80.93
2022-10-12T08:45:41.692Z,80.01
2022-10-12T08:46:41.689Z,79.80
2022-10-12T08:47:41.986Z,79.60
2022-10-12T08:48:41.821Z,79.16
2022-10-12T08:49:44.160Z,78.85
2022-10-12T08:50:41.640Z,78.64
2022-10-12T08:51:41.634Z,78.85
2022-10-12T08:52:41.909Z,78.64
2022-10-12T08:53:41.617Z,78.64
2022-10-12T08:54:41.604Z,78.64
2022-10-12T08:55:41.588Z,78.50
2022-10-12T08:56:41.576Z,78.20
2022-10-12T08:57:43.444Z,78.00
2022-10-12T08:58:41.544Z,77.59
2022-10-12T08:59:41.546Z,77.28
2022-10-12T09:00:41.556Z,77.38
2022-10-12T09:01:41.570Z,77.48
2022-10-12T09:02:41.747Z,77.59
2022-10-12T09:03:41.496Z,77.34
2022-10-12T09:04:41.489Z,77.34
2022-10-12T09:05:41.514Z,77.34
2022-10-12T09:06:41.466Z,77.25
2022-10-12T09:07:41.559Z,77.34
2022-10-12T09:08:41.444Z,77.14
2022-10-12T09:09:43.200Z,76.84
2022-10-12T09:10:41.420Z,76.90
2022-10-12T09:11:41.429Z,76.50
2022-10-12T09:12:41.685Z,76.39
2022-10-12T09:13:41.435Z,76.39
2022-10-12T09:14:41.394Z,75.88
2022-10-12T09:15:41.376Z,75.98
2022-10-12T09:16:41.356Z,75.78
2022-10-12T09:17:41.409Z,75.98
2022-10-12T09:18:41.561Z,76.19
2022-10-12T09:19:41.322Z,76.39
2022-10-12T09:20:41.313Z,76.59
2022-10-12T09:21:41.305Z,76.56
2022-10-12T09:22:41.866Z,76.56
2022-10-12T09:23:41.290Z,76.46
2022-10-12T09:24:41.264Z,76.15
2022-10-12T09:25:41.294Z,75.64
2022-10-12T09:26:41.247Z,75.23
2022-10-12T09:27:45.052Z,75.13
2022-10-12T09:28:41.375Z,74.62
2022-10-12T09:29:41.211Z,74.69
2022-10-12T09:30:41.234Z,74.28
2022-10-12T09:31:41.201Z,74.08
2022-10-12T09:32:41.185Z,74.18
2022-10-12T09:33:41.174Z,74.18
2022-10-12T09:34:41.177Z,74.28
2022-10-12T09:35:41.152Z,74.18
2022-10-12T09:36:41.160Z,73.97
2022-10-12T09:37:41.159Z,73.97
2022-10-12T09:38:41.143Z,73.84
2022-10-12T09:39:41.142Z,73.84
2022-10-12T09:40:41.100Z,73.74
2022-10-12T09:41:41.145Z,73.64
2022-10-12T09:42:41.078Z,73.43
2022-10-12T09:43:41.070Z,73.43
2022-10-12T09:44:41.057Z,73.13
2022-10-12T09:45:41.231Z,72.01
2022-10-12T09:46:41.052Z,71.60
2022-10-12T09:47:41.069Z,71.36
2022-10-12T09:48:44.520Z,71.36
2022-10-12T09:49:41.029Z,71.56
2022-10-12T09:50:41.023Z,71.56
2022-10-12T09:51:41.027Z,71.77
2022-10-12T09:52:40.970Z,71.26
2022-10-12T09:53:40.951Z,70.75
2022-10-12T09:54:41.027Z,71.02
2022-10-12T09:55:40.932Z,71.02
2022-10-12T09:56:40.925Z,70.62
2022-10-12T09:57:41.224Z,70.62
2022-10-12T09:58:40.894Z,70.51
2022-10-12T09:59:40.891Z,70.62
2022-10-12T10:00:40.897Z,70.10
2022-10-12T10:01:40.882Z,70.10
2022-10-12T10:02:40.859Z,70.18
2022-10-12T10:03:40.869Z,70.18
2022-10-12T10:04:40.837Z,70.07
2022-10-12T10:05:40.837Z,70.07
2022-10-12T10:06:40.820Z,69.77
2022-10-12T10:07:40.821Z,69.77
2022-10-12T10:08:40.784Z,68.92
2022-10-12T10:09:40.771Z,68.82
2022-10-12T10:10:40.764Z,68.62
2022-10-12T10:11:40.771Z,68.41
2022-10-12T10:12:40.770Z,68.62
2022-10-12T10:13:40.733Z,68.52
2022-10-12T10:14:40.727Z,68.18
2022-10-12T10:15:40.712Z,68.08
2022-10-12T10:16:40.708Z,68.28
2022-10-12T10:17:40.696Z,68.38
2022-10-12T10:18:40.688Z,68.69
2022-10-12T10:19:40.669Z,68.35
2022-10-12T10:20:40.654Z,68.35
2022-10-12T10:21:40.653Z,67.24
2022-10-12T10:22:40.639Z,67.44
2022-10-12T10:23:40.655Z,67.61
2022-10-12T10:24:40.625Z,66.90
2022-10-12T10:25:40.610Z,67.20
2022-10-12T10:26:40.597Z,66.90
2022-10-12T10:27:40.589Z,67.00
2022-10-12T10:28:40.610Z,67.10
2022-10-12T10:29:40.574Z,67.07
2022-10-12T10:30:41.534Z,66.77
2022-10-12T10:31:40.668Z,66.66
2022-10-12T10:32:40.530Z,66.77
2022-10-12T10:33:40.560Z,66.97
2022-10-12T10:34:40.522Z,67.34
2022-10-12T10:35:40.504Z,66.74
2022-10-12T10:36:40.484Z,66.53
2022-10-12T10:37:40.471Z,66.40
2022-10-12T10:38:40.466Z,66.50
2022-10-12T10:39:40.561Z,65.79
2022-10-12T10:40:40.444Z,65.36
2022-10-12T10:41:40.435Z,64.41
2022-10-12T10:42:40.423Z,63.70
2022-10-12T10:43:40.405Z,63.07
2022-10-12T10:44:43.438Z,62.73
2022-10-12T10:45:40.456Z,62.12
2022-10-12T10:46:40.384Z,62.30
2022-10-12T10:47:40.370Z,62.10
2022-10-12T10:48:40.350Z,61.59
2022-10-12T10:49:41.537Z,61.36
2022-10-12T10:50:40.349Z,60.75
2022-10-12T10:51:40.327Z,60.72
2022-10-12T10:52:40.307Z,60.22
2022-10-12T10:53:40.316Z,59.51
2022-10-12T10:54:40.284Z,59.18
2022-10-12T10:55:40.302Z,58.67
2022-10-12T10:56:40.273Z,58.65
2022-10-12T10:57:40.268Z,58.75
2022-10-12T10:58:40.249Z,57.81
2022-10-12T10:59:40.240Z,57.28
2022-10-12T11:00:41.113Z,57.71
2022-10-12T11:01:40.299Z,57.98
2022-10-12T11:02:40.194Z,57.89
2022-10-12T11:03:40.194Z,57.38
2022-10-12T11:04:40.175Z,56.55
2022-10-12T11:05:40.173Z,56.85
2022-10-12T11:06:40.232Z,56.75
2022-10-12T11:07:40.144Z,56.35
2022-10-12T11:08:40.133Z,56.22
2022-10-12T11:09:40.132Z,55.91
2022-10-12T11:10:40.112Z,56.32
2022-10-12T11:11:40.122Z,56.20
2022-10-12T11:12:40.129Z,54.99
2022-10-12T11:13:40.108Z,54.68
2022-10-12T11:14:40.075Z,54.75
2022-10-12T11:15:40.057Z,54.86
2022-10-12T11:16:40.058Z,54.73
2022-10-12T11:17:40.036Z,54.83
2022-10-12T11:18:40.050Z,54.33
2022-10-12T11:19:40.020Z,54.30
2022-10-12T11:20:40.009Z,53.90
2022-10-12T11:21:39.992Z,53.60
2022-10-12T11:22:39.990Z,53.37
2022-10-12T11:23:40.004Z,52.97
2022-10-12T11:24:40.027Z,52.87
2022-10-12T11:25:39.956Z,52.89
2022-10-12T11:26:39.951Z,52.17
2022-10-12T11:27:39.933Z,52.47
2022-10-12T11:28:39.957Z,51.86
2022-10-12T11:29:39.945Z,51.84
2022-10-12T11:30:39.902Z,52.34
2022-10-12T11:31:39.923Z,51.44
2022-10-12T11:32:39.888Z,51.24
2022-10-12T11:33:39.872Z,51.04
2022-10-12T11:34:39.872Z,51.84
2022-10-12T11:35:39.861Z,50.93
2022-10-12T11:36:47.317Z,50.93
2022-10-12T11:37:39.847Z,51.14
2022-10-12T11:38:39.820Z,50.93
2022-10-12T11:39:39.815Z,50.73
2022-10-12T11:41:48.487Z,50.43
2022-10-12T11:42:43.230Z,50.33
2022-10-12T11:43:39.758Z,50.66
2022-10-12T11:44:39.767Z,51.18
2022-10-12T11:45:39.854Z,51.61
2022-10-12T11:46:39.733Z,51.84
2022-10-12T11:47:39.718Z,52.24
2022-10-12T11:48:39.717Z,52.97
2022-10-12T11:49:39.708Z,52.97
2022-10-12T11:50:39.704Z,53.50
2022-10-12T11:51:39.667Z,53.50
2022-10-12T11:52:39.665Z,53.83
2022-10-12T11:53:39.654Z,53.72
2022-10-12T11:54:39.659Z,53.92
2022-10-12T11:55:39.652Z,53.96
2022-10-12T11:56:39.618Z,54.05
2022-10-12T11:57:39.602Z,54.05
2022-10-12T11:58:59.946Z,54.46
2022-10-12T11:59:39.603Z,54.36
2022-10-12T12:00:39.587Z,54.56
2022-10-12T12:01:39.575Z,53.65
2022-10-12T12:02:39.565Z,53.75
2022-10-12T12:03:39.628Z,53.96
2022-10-12T12:04:42.781Z,53.65
2022-10-12T12:05:39.557Z,53.88
2022-10-12T12:06:39.516Z,54.08
2022-10-12T12:07:39.523Z,54.38
2022-10-12T12:08:39.494Z,54.68
2022-10-12T12:09:39.875Z,54.61
2022-10-12T12:10:39.488Z,55.01
2022-10-12T12:11:39.474Z,54.91
2022-10-12T12:12:39.471Z,54.61
2022-10-12T12:13:39.448Z,54.63
2022-10-12T12:14:39.679Z,54.63
2022-10-12T12:15:39.438Z,54.94
2022-10-12T12:16:39.422Z,55.04
2022-10-12T12:17:39.393Z,55.16
2022-10-12T12:18:39.381Z,55.16
2022-10-12T12:19:39.552Z,55.36
2022-10-12T12:20:39.375Z,55.77
2022-10-12T12:21:39.374Z,55.67
2022-10-12T12:22:39.360Z,55.47
2022-10-12T12:23:39.327Z,55.77
2022-10-12T12:24:39.355Z,55.77
2022-10-12T12:25:39.314Z,55.98
2022-10-12T12:26:39.289Z,56.18
2022-10-12T12:27:39.301Z,56.18
2022-10-12T12:28:39.331Z,55.67
2022-10-12T12:29:39.507Z,55.77
2022-10-12T12:30:39.253Z,55.98
2022-10-12T12:31:39.254Z,56.27
2022-10-12T12:32:39.244Z,55.87
2022-10-12T12:33:39.232Z,55.67
2022-10-12T12:34:39.215Z,56.07
2022-10-12T12:35:39.226Z,55.47
2022-10-12T12:36:39.182Z,55.16
2022-10-12T12:37:39.220Z,55.07
2022-10-12T12:38:39.197Z,55.47
2022-10-12T12:39:39.169Z,55.36
2022-10-12T12:40:39.144Z,55.16
2022-10-12T12:41:39.139Z,55.87
2022-10-12T12:42:39.134Z,55.57
2022-10-12T12:43:39.163Z,55.47
2022-10-12T12:44:39.126Z,55.36
2022-10-12T12:45:39.113Z,55.67
2022-10-12T12:46:39.084Z,55.47
2022-10-12T12:47:46.817Z,55.47
2022-10-12T12:48:39.066Z,55.69
2022-10-12T12:49:39.070Z,55.90
2022-10-12T12:50:39.087Z,56.20
2022-10-12T12:51:39.030Z,56.51
2022-10-12T12:52:39.009Z,56.51
2022-10-12T12:53:39.005Z,56.40
2022-10-12T12:54:39.002Z,56.27